Time;durP1;ratioP1;P1;durP2;ratioP2;P2;SDS_P1;SDS_P2;PMS_P1;PMS_P2;Temp;Humidity;BMP_temperature;BMP_pressure;BME280_temperature;BME280_humidity;BME280_pressure;Samples;Min_cycle;Max_cycle;Signal;HPM_P1;HPM_P2
2022/02/05 00:00:23;;;;;;;6.58;3.62;;;;;;;5.42;73.61;99234.53;2106505;83;21035;-82
2022/02/05 00:06:07;;;;;;;4.12;2.52;;;;;;;5.37;73.69;99228.41;2092915;83;21059;-81
2022/02/05 00:09:17;;;;;;;5.15;3.22;;;;;;;5.38;73.77;99224.81;2098269;83;21023;-80
2022/02/05 00:12:30;;;;;;;2.90;2.20;;;;;;;5.40;73.86;99220.70;2079234;83;21066;-84
2022/02/05 00:41:26;;;;;;;3.77;2.42;;;;;;;5.37;73.81;99216.57;2093319;83;21055;-83
2022/02/05 00:44:24;;;;;;;3.55;2.22;;;;;;;5.38;73.87;99209.03;2094855;83;21016;-80
2022/02/05 00:47:26;;;;;;;3.02;2.50;;;;;;;5.39;73.71;99213.30;2102005;83;21023;-83
2022/02/05 00:50:30;;;;;;;4.28;2.72;;;;;;;5.40;73.75;99216.75;2099057;83;21013;-80
2022/02/05 00:53:35;;;;;;;4.08;2.30;;;;;;;5.38;73.66;99211.66;2105160;83;21055;-83
2022/02/05 00:59:55;;;;;;;4.40;2.67;;;;;;;5.38;73.63;99214.79;2106624;83;21064;-81
2022/02/05 01:02:57;;;;;;;4.60;2.62;;;;;;;5.38;73.64;99226.63;2096441;83;21593;-78
2022/02/05 01:05:58;;;;;;;3.85;2.58;;;;;;;5.36;73.72;99233.34;2099577;83;21087;-81
2022/02/05 01:09:04;;;;;;;8.28;2.87;;;;;;;5.33;73.76;99231.03;2092153;83;21515;-79
2022/02/05 01:12:06;;;;;;;3.70;2.25;;;;;;;5.34;73.74;99232.66;2096818;83;21040;-80
2022/02/05 01:15:08;;;;;;;4.58;2.65;;;;;;;5.33;73.82;99229.71;2102595;83;21113;-80
2022/02/05 01:18:12;;;;;;;3.65;2.50;;;;;;;5.34;73.85;99234.48;2096488;83;21054;-81
2022/02/05 01:21:37;;;;;;;4.22;2.50;;;;;;;5.34;73.83;99236.61;2095058;83;20985;-82
2022/02/05 01:24:29;;;;;;;3.67;2.45;;;;;;;5.35;73.89;99230.85;2091632;83;21033;-82
2022/02/05 01:27:40;;;;;;;2.92;2.50;;;;;;;5.35;73.85;99233.02;2098476;83;21087;-79
2022/02/05 01:30:37;;;;;;;3.33;2.42;;;;;;;5.36;73.87;99237.79;2100335;83;21104;-83
2022/02/05 01:34:00;;;;;;;3.65;2.45;;;;;;;5.37;73.86;99242.06;2091449;83;21070;-82
2022/02/05 01:53:49;;;;;;;1.75;1.30;;;;;;;5.40;73.93;99265.42;2097049;83;21012;-80
2022/02/05 01:56:46;;;;;;;2.22;1.65;;;;;;;5.44;73.35;99302.80;2097015;83;21004;-81
2022/02/05 02:00:04;;;;;;;2.33;1.17;;;;;;;5.45;72.91;99307.07;2099803;83;21044;-82
2022/02/05 02:12:42;;;;;;;1.55;1.22;;;;;;;5.31;71.16;99316.34;2095088;83;21028;-80
2022/02/05 02:22:04;;;;;;;0.62;0.62;;;;;;;4.95;70.36;99354.47;2091670;83;21016;-82
2022/02/05 02:25:10;;;;;;;0.57;0.57;;;;;;;4.85;70.85;99379.52;2098757;83;21021;-82
2022/02/05 02:31:11;;;;;;;1.17;0.78;;;;;;;4.65;71.30;99405.58;2103286;83;21063;-86
2022/02/05 02:34:15;;;;;;;0.72;0.72;;;;;;;4.56;71.79;99414.31;2095761;83;21621;-82
2022/02/05 02:37:19;;;;;;;0.70;0.70;;;;;;;4.48;71.59;99417.69;2095121;83;21048;-82
2022/02/05 02:40:30;;;;;;;0.75;0.75;;;;;;;4.40;71.77;99427.59;2103133;83;21559;-82
2022/02/05 02:43:30;;;;;;;0.65;0.65;;;;;;;4.35;71.31;99446.89;2098238;83;21026;-82
2022/02/05 02:46:30;;;;;;;2.00;0.88;;;;;;;4.31;70.90;99456.50;2099755;83;20997;-82
2022/02/05 02:59:25;;;;;;;0.62;0.60;;;;;;;4.06;70.19;99484.23;2097272;83;21071;-82
2022/02/05 03:02:26;;;;;;;0.98;0.70;;;;;;;3.98;70.09;99478.35;2100186;83;21632;-82
2022/02/05 03:05:27;;;;;;;0.60;0.60;;;;;;;3.94;69.58;99494.02;2120077;83;21563;-80
2022/02/05 03:08:29;;;;;;;0.72;0.60;;;;;;;3.89;69.14;99496.26;2101448;83;22526;-82
2022/02/05 03:11:30;;;;;;;0.70;0.70;;;;;;;3.86;69.12;99530.63;2093205;83;21479;-81
2022/02/05 03:14:32;;;;;;;0.55;0.55;;;;;;;3.79;69.39;99548.24;2099892;83;21063;-81
2022/02/05 03:17:43;;;;;;;2.42;0.82;;;;;;;3.74;69.24;99563.56;2096201;83;20995;-83
2022/02/05 03:20:42;;;;;;;1.35;0.88;;;;;;;3.71;69.47;99563.02;2096416;83;21019;-82
2022/02/05 03:23:43;;;;;;;0.90;0.80;;;;;;;3.64;69.08;99581.59;2102290;83;21055;-79
2022/02/05 03:26:45;;;;;;;0.82;0.75;;;;;;;3.55;69.12;99582.75;2092960;83;21107;-81
2022/02/05 03:29:49;;;;;;;1.10;0.70;;;;;;;3.51;68.96;99598.39;2092591;83;21043;-84
2022/02/05 03:32:50;;;;;;;1.67;0.90;;;;;;;3.46;69.32;99607.14;2100981;83;21023;-82
2022/02/05 03:35:53;;;;;;;2.47;0.60;;;;;;;3.43;69.28;99622.33;2103116;83;21088;-81
2022/02/05 03:38:55;;;;;;;1.98;0.98;;;;;;;3.38;69.36;99613.56;2102162;83;21071;-79
2022/02/05 03:41:56;;;;;;;1.95;0.90;;;;;;;3.30;69.31;99629.95;2104792;83;21075;-80
2022/02/05 03:44:57;;;;;;;1.92;0.80;;;;;;;3.24;69.25;99629.17;2100964;83;21072;-81
2022/02/05 03:48:00;;;;;;;1.85;1.00;;;;;;;3.18;69.12;99630.16;2099211;83;21008;-80
2022/02/05 03:51:01;;;;;;;1.42;0.80;;;;;;;3.13;69.52;99644.98;2098573;83;20996;-82
2022/02/05 03:54:05;;;;;;;1.32;0.88;;;;;;;3.05;69.43;99650.87;2104362;83;21074;-82
2022/02/05 03:57:05;;;;;;;1.15;0.90;;;;;;;3.01;69.57;99659.11;2099976;83;21059;-79
2022/02/05 04:00:08;;;;;;;2.15;0.80;;;;;;;2.94;69.81;99655.37;2088633;83;21019;-82
2022/02/05 04:03:10;;;;;;;1.47;0.95;;;;;;;2.93;70.03;99675.51;2096217;83;21640;-80
2022/02/05 04:06:11;;;;;;;1.27;0.82;;;;;;;2.95;70.39;99670.95;2096896;83;21316;-81
2022/02/05 04:09:27;;;;;;;3.80;0.95;;;;;;;2.97;70.62;99674.28;2103837;83;20991;-81
2022/02/05 04:15:58;;;;;;;1.37;0.88;;;;;;;2.99;70.99;99694.64;2096342;83;21077;-80
2022/02/05 04:18:57;;;;;;;2.00;0.70;;;;;;;2.99;71.30;99688.58;2096625;83;21043;-83
2022/02/05 04:21:59;;;;;;;0.75;0.70;;;;;;;2.99;71.61;99707.75;2096069;83;21485;-86
2022/02/05 04:25:00;;;;;;;1.60;0.80;;;;;;;2.96;72.02;99714.56;2094974;83;21015;-83
2022/02/05 04:28:01;;;;;;;1.27;1.00;;;;;;;2.94;72.18;99705.98;2100794;83;21596;-84
2022/02/05 04:31:03;;;;;;;1.07;0.72;;;;;;;2.90;72.62;99718.98;2094958;83;21032;-82
2022/02/05 04:34:05;;;;;;;1.12;0.90;;;;;;;2.86;72.76;99713.66;2109638;83;21042;-84
2022/02/05 04:37:07;;;;;;;0.80;0.80;;;;;;;2.82;72.87;99726.19;2102121;83;21070;-82
2022/02/05 04:40:28;;;;;;;1.35;0.80;;;;;;;2.79;72.92;99738.23;2102474;83;21040;-79
2022/02/05 04:53:18;;;;;;;1.62;0.90;;;;;;;2.56;73.46;99758.45;2099909;83;21090;-81
2022/02/05 05:05:51;;;;;;;2.95;1.00;;;;;;;2.41;73.79;99782.75;2100083;83;21889;-80
2022/02/05 05:09:03;;;;;;;3.15;1.20;;;;;;;2.36;73.75;99785.39;2100254;83;21063;-80
2022/02/05 05:12:14;;;;;;;4.95;1.32;;;;;;;2.36;74.20;99782.77;2105201;83;21052;-80
2022/02/05 05:21:32;;;;;;;1.92;1.00;;;;;;;2.39;74.71;99806.95;2096003;83;21028;-79
2022/02/05 05:24:33;;;;;;;7.15;1.35;;;;;;;2.38;74.39;99817.05;2099250;83;21548;-78
2022/02/05 05:27:34;;;;;;;3.22;1.32;;;;;;;2.37;74.59;99814.08;2107733;83;21468;-83
2022/02/05 05:30:35;;;;;;;2.72;1.10;;;;;;;2.36;74.57;99824.19;2100381;83;21067;-80
2022/02/05 05:33:36;;;;;;;2.65;1.55;;;;;;;2.33;74.47;99820.98;2093706;83;21040;-78
2022/02/05 05:36:38;;;;;;;4.45;1.37;;;;;;;2.31;74.62;99832.05;2097587;83;20993;-79
2022/02/05 05:39:42;;;;;;;2.25;1.40;;;;;;;2.30;74.69;99831.70;2098027;83;21502;-79
2022/02/05 05:42:47;;;;;;;1.45;1.10;;;;;;;2.30;74.84;99837.77;2090356;83;21575;-82
2022/02/05 05:46:13;;;;;;;2.72;1.25;;;;;;;2.31;74.86;99834.66;2100450;83;21571;-81
2022/02/05 05:51:55;;;;;;;6.92;1.90;;;;;;;2.35;75.02;99846.58;2098645;83;21005;-80
2022/02/05 05:54:56;;;;;;;3.55;1.50;;;;;;;2.33;75.18;99861.56;2098723;83;21055;-82
2022/02/05 05:57:57;;;;;;;3.55;2.00;;;;;;;2.28;75.44;99867.63;2099525;83;21024;-80
2022/02/05 06:00:59;;;;;;;6.50;1.75;;;;;;;2.20;75.53;99869.56;2102487;83;20963;-81
2022/02/05 06:04:00;;;;;;;5.28;1.67;;;;;;;2.11;75.54;99861.95;2103494;83;21535;-81
2022/02/05 06:07:04;;;;;;;6.45;1.47;;;;;;;2.08;75.53;99870.48;2095087;83;21008;-82
2022/02/05 06:10:06;;;;;;;3.90;1.62;;;;;;;2.06;75.79;99875.03;2102286;83;21145;-80
2022/02/05 06:13:09;;;;;;;4.92;1.50;;;;;;;2.06;75.83;99882.41;2105776;83;21035;-82
2022/02/05 06:16:15;;;;;;;8.03;1.95;;;;;;;2.09;75.81;99881.34;2099808;83;21012;-83
2022/02/05 06:19:15;;;;;;;6.75;2.47;;;;;;;2.11;75.76;99893.36;2105091;83;21031;-84
2022/02/05 06:22:16;;;;;;;4.35;1.67;;;;;;;2.11;75.87;99893.36;2101235;83;21050;-80
2022/02/05 06:25:17;;;;;;;4.90;1.92;;;;;;;2.13;75.73;99900.59;2099495;83;21056;-81
2022/02/05 06:28:18;;;;;;;5.33;2.08;;;;;;;2.17;75.77;99899.91;2094891;83;21035;-81
2022/02/05 06:31:20;;;;;;;7.83;2.05;;;;;;;2.21;75.71;99909.17;2104401;83;21004;-80
2022/02/05 06:34:21;;;;;;;6.75;1.98;;;;;;;2.25;75.73;99917.14;2098602;83;21432;-83
2022/02/05 06:37:23;;;;;;;7.85;2.25;;;;;;;2.29;75.66;99917.75;2098105;83;20992;-79
2022/02/05 06:40:24;;;;;;;5.58;1.60;;;;;;;2.31;75.58;99915.38;2078209;83;21491;-80
2022/02/05 06:43:25;;;;;;;6.15;2.02;;;;;;;2.35;75.40;99925.96;2098492;83;21740;-79
2022/02/05 06:46:27;;;;;;;6.12;2.02;;;;;;;2.40;75.28;99921.69;2100820;83;21008;-80
2022/02/05 06:49:30;;;;;;;5.70;1.70;;;;;;;2.46;75.12;99925.96;2098301;83;21064;-81
2022/02/05 06:52:31;;;;;;;5.97;2.00;;;;;;;2.50;75.10;99915.23;2090581;83;21031;-81
2022/02/05 06:55:33;;;;;;;4.97;1.72;;;;;;;2.55;74.85;99923.09;2099810;83;21661;-82
2022/02/05 06:58:34;;;;;;;4.35;1.87;;;;;;;2.61;74.58;99929.16;2098757;83;21016;-82
2022/02/05 07:01:36;;;;;;;5.92;1.95;;;;;;;2.68;74.29;99934.28;2095261;83;21011;-78
2022/02/05 07:04:37;;;;;;;6.58;1.40;;;;;;;2.77;74.32;99936.66;2094800;83;21051;-78
2022/02/05 07:07:40;;;;;;;4.33;1.60;;;;;;;2.97;73.99;99942.94;2098120;83;21550;-79
2022/02/05 07:10:41;;;;;;;4.35;1.90;;;;;;;3.07;73.62;99951.74;2099712;83;21071;-81
2022/02/05 07:13:44;;;;;;;5.47;2.05;;;;;;;3.10;73.71;99946.25;2098329;83;21546;-80
2022/02/05 07:16:54;;;;;;;5.78;1.50;;;;;;;3.08;73.03;99946.02;2096637;83;21028;-80
2022/02/05 07:20:03;;;;;;;9.60;2.08;;;;;;;3.07;73.28;99959.61;2099851;83;21104;-81
2022/02/05 07:29:22;;;;;;;7.00;1.70;;;;;;;3.06;73.00;99961.85;2097326;83;21473;-80
2022/02/05 07:32:24;;;;;;;5.67;1.60;;;;;;;3.06;72.86;99972.83;2114929;83;21004;-80
2022/02/05 07:35:26;;;;;;;9.15;2.25;;;;;;;3.05;72.71;99970.69;2097821;83;20991;-79
2022/02/05 07:38:28;;;;;;;5.83;1.80;;;;;;;3.09;72.36;99976.51;2102903;83;21579;-80
2022/02/05 07:41:29;;;;;;;9.83;2.17;;;;;;;3.12;72.76;99980.19;2099114;83;21083;-81
2022/02/05 07:44:30;;;;;;;7.95;2.52;;;;;;;3.16;72.80;99980.80;2104356;83;21507;-80
2022/02/05 07:47:34;;;;;;;8.15;2.08;;;;;;;3.21;72.54;99982.10;2097086;83;21038;-83
2022/02/05 07:50:35;;;;;;;5.53;2.10;;;;;;;3.25;71.65;99985.30;2096100;83;21080;-81
2022/02/05 07:53:36;;;;;;;7.67;2.27;;;;;;;3.33;72.10;99989.45;2098909;83;21074;-79
2022/02/05 07:56:47;;;;;;;8.15;1.95;;;;;;;3.40;71.77;99986.68;2101349;83;21533;-80
2022/02/05 07:59:49;;;;;;;7.67;2.47;;;;;;;3.45;71.39;99979.28;2095501;83;21023;-80
2022/02/05 08:02:52;;;;;;;6.20;2.10;;;;;;;3.48;71.41;99988.20;2101006;83;21039;-83
2022/02/05 08:05:53;;;;;;;6.72;2.90;;;;;;;3.55;71.81;99988.56;2096327;83;21498;-83
2022/02/05 08:08:59;;;;;;;5.53;2.08;;;;;;;3.61;71.42;99997.73;2093916;83;21549;-85
2022/02/05 08:12:05;;;;;;;4.28;2.10;;;;;;;3.67;70.57;99982.78;2108176;83;21043;-84
2022/02/05 08:15:04;;;;;;;5.40;2.17;;;;;;;3.68;70.56;99992.31;2097632;83;21033;-84
2022/02/05 08:18:06;;;;;;;7.37;2.37;;;;;;;3.71;70.72;99988.95;2106340;83;21019;-84
2022/02/05 08:21:07;;;;;;;8.93;3.05;;;;;;;3.75;70.19;99989.55;2073724;83;21501;-83
2022/02/05 08:24:09;;;;;;;9.48;3.40;;;;;;;3.77;70.43;99983.22;2090404;83;21023;-83
2022/02/05 08:27:11;;;;;;;6.75;2.60;;;;;;;3.86;70.26;99997.38;2096064;83;21068;-86
2022/02/05 08:30:14;;;;;;;7.58;2.52;;;;;;;4.06;69.65;99998.34;2097592;83;21068;-84
2022/02/05 08:33:15;;;;;;;5.62;2.60;;;;;;;4.11;69.78;100015.02;2092826;83;21028;-83
2022/02/05 08:36:22;;;;;;;5.67;2.40;;;;;;;4.11;69.32;100000.12;2101880;83;21039;-82
2022/02/05 08:39:23;;;;;;;7.75;2.80;;;;;;;4.09;69.83;100014.33;2102635;83;20980;-82
2022/02/05 08:42:25;;;;;;;7.12;2.62;;;;;;;4.03;69.36;100015.67;2094132;83;21086;-85
2022/02/05 08:45:26;;;;;;;7.55;3.70;;;;;;;4.02;69.35;100003.00;2099588;83;21011;-84
2022/02/05 08:48:27;;;;;;;8.20;3.87;;;;;;;3.95;68.91;100009.73;2099347;83;21006;-82
2022/02/05 08:51:29;;;;;;;7.10;3.22;;;;;;;3.76;70.33;100023.53;2095063;83;20999;-81
2022/02/05 08:54:31;;;;;;;5.28;3.33;;;;;;;3.64;70.99;100025.84;2074736;83;21041;-82
2022/02/05 08:57:35;;;;;;;8.75;2.92;;;;;;;3.60;71.34;100009.98;2095815;83;21511;-82
2022/02/05 09:00:46;;;;;;;7.12;3.05;;;;;;;3.65;71.40;100027.98;2103411;83;21486;-81
2022/02/05 09:03:56;;;;;;;10.25;2.95;;;;;;;3.75;71.14;100018.42;2099046;83;21071;-84
2022/02/05 09:06:48;;;;;;;6.67;2.98;;;;;;;3.93;70.73;100014.27;2099752;83;21072;-84
2022/02/05 09:10:04;;;;;;;6.60;2.98;;;;;;;4.06;70.63;100015.90;2099225;83;21529;-82
2022/02/05 09:13:25;;;;;;;8.78;2.95;;;;;;;4.29;70.02;100014.80;2093580;83;21641;-84
2022/02/05 09:16:15;;;;;;;6.03;2.60;;;;;;;4.35;68.92;100016.08;2092950;83;22162;-80
2022/02/05 09:19:17;;;;;;;10.75;3.15;;;;;;;4.35;69.06;100022.65;2099193;83;21551;-84
2022/02/05 09:22:18;;;;;;;7.92;3.12;;;;;;;4.36;69.54;100019.05;2100279;83;21030;-84
2022/02/05 09:25:21;;;;;;;9.10;3.00;;;;;;;4.36;69.09;100029.06;2098225;83;21638;-83
2022/02/05 09:28:23;;;;;;;10.50;2.67;;;;;;;4.36;68.68;100021.19;2100675;83;21016;-80
2022/02/05 09:31:28;;;;;;;10.48;2.85;;;;;;;4.36;69.11;100028.23;2096194;83;21008;-83
2022/02/05 09:34:27;;;;;;;7.75;2.83;;;;;;;4.37;68.98;100015.48;2102293;83;21081;-80
2022/02/05 09:37:29;;;;;;;7.95;3.25;;;;;;;4.38;68.57;100036.84;2096363;83;21000;-81
2022/02/05 09:40:32;;;;;;;10.50;3.37;;;;;;;4.25;68.64;100037.02;2096631;83;21049;-78
2022/02/05 09:43:33;;;;;;;6.78;3.37;;;;;;;4.15;69.57;100052.72;2101015;83;21035;-77
2022/02/05 09:46:36;;;;;;;9.78;2.98;;;;;;;4.16;69.17;100043.05;2098929;83;21003;-79
2022/02/05 09:49:38;;;;;;;9.30;2.80;;;;;;;4.26;68.69;100030.82;2096991;83;21075;-76
2022/02/05 09:52:40;;;;;;;6.17;3.00;;;;;;;4.41;68.73;100047.08;2099628;83;21517;-78
2022/02/05 09:55:44;;;;;;;9.35;3.52;;;;;;;4.61;68.91;100045.40;2098929;83;21498;-79
2022/02/05 09:58:46;;;;;;;4.78;2.60;;;;;;;4.77;68.25;100049.70;2094706;83;21507;-81
2022/02/05 10:01:47;;;;;;;10.43;3.27;;;;;;;4.92;67.51;100050.18;2098349;83;21026;-78
2022/02/05 10:05:10;;;;;;;7.28;2.92;;;;;;;4.91;68.04;100051.98;2092463;83;20959;-81
2022/02/05 10:08:13;;;;;;;6.50;2.72;;;;;;;4.85;67.56;100048.57;2085556;83;21086;-79
2022/02/05 10:11:14;;;;;;;10.10;3.62;;;;;;;4.85;67.46;100055.14;2098579;83;21018;-80
2022/02/05 10:14:23;;;;;;;6.67;2.45;;;;;;;4.87;67.77;100066.83;2098941;83;21034;-80
2022/02/05 10:17:41;;;;;;;6.95;2.98;;;;;;;4.82;67.11;100061.98;2097143;83;21488;-83
2022/02/05 10:20:44;;;;;;;8.28;2.98;;;;;;;4.71;66.68;100062.06;2061486;85;21085;-78
2022/02/05 10:24:10;;;;;;;10.55;3.50;;;;;;;4.70;67.17;100044.61;2099664;83;21062;-81
2022/02/05 10:27:31;;;;;;;7.28;2.70;;;;;;;4.73;66.88;100048.31;2090062;85;21073;-77
2022/02/05 10:30:32;;;;;;;6.03;2.75;;;;;;;4.72;66.88;100053.20;2091662;85;21633;-81
2022/02/05 10:33:35;;;;;;;10.98;2.98;;;;;;;4.72;66.82;100045.31;2090541;84;20977;-77
2022/02/05 10:36:41;;;;;;;8.03;3.02;;;;;;;4.70;66.73;100044.61;2096944;83;21100;-77
2022/02/05 10:40:05;;;;;;;8.88;2.85;;;;;;;4.65;65.84;100040.25;2091396;84;21055;-83
2022/02/05 10:43:03;;;;;;;7.80;2.87;;;;;;;4.56;65.67;100048.44;2093756;83;21005;-79
2022/02/05 10:46:05;;;;;;;7.90;3.22;;;;;;;4.46;65.41;100045.73;2090414;84;21734;-80
2022/02/05 10:49:06;;;;;;;6.47;2.60;;;;;;;4.36;65.93;100056.66;2094934;83;20979;-79
2022/02/05 10:52:08;;;;;;;4.35;2.45;;;;;;;4.25;65.87;100056.26;2092205;85;21036;-76
2022/02/05 10:58:19;;;;;;;8.03;3.10;;;;;;;4.15;66.18;100059.77;2097092;83;21083;-81
2022/02/05 11:08:09;;;;;;;9.03;3.00;;;;;;;4.03;67.78;100057.20;2092080;85;21897;-79
2022/02/05 11:18:13;;;;;;;7.43;2.93;;;;;;;4.16;67.69;100067.99;2096805;83;21011;-84
2022/02/05 11:21:13;;;;;;;10.35;3.45;;;;;;;4.22;67.92;100081.92;2092252;84;21052;-81
2022/02/05 11:24:15;;;;;;;6.75;2.60;;;;;;;4.24;67.67;100083.95;2090870;83;21055;-79
2022/02/05 11:27:17;;;;;;;7.00;2.95;;;;;;;4.21;66.84;100068.45;2097311;84;21027;-83
2022/02/05 11:30:36;;;;;;;6.95;2.58;;;;;;;4.16;67.11;100058.31;2094624;84;21044;-84
2022/02/05 11:33:38;;;;;;;7.95;2.98;;;;;;;4.38;67.71;100086.27;2092490;83;21061;-84
2022/02/05 11:36:46;;;;;;;5.72;2.70;;;;;;;4.64;67.18;100077.50;2109207;83;21499;-83
2022/02/05 11:39:53;;;;;;;5.78;2.33;;;;;;;5.03;66.63;100074.25;2080902;83;21617;-82
2022/02/05 11:43:18;;;;;;;6.58;1.80;;;;;;;5.20;65.76;100073.61;2071759;84;21050;-81
2022/02/05 11:46:19;;;;;;;7.08;2.55;;;;;;;5.28;66.05;100075.09;2086320;83;21698;-83
2022/02/05 11:49:20;;;;;;;8.18;2.62;;;;;;;5.52;65.15;100077.39;2097799;83;21523;-81
2022/02/05 11:52:45;;;;;;;2.80;2.00;;;;;;;5.58;65.20;100079.97;2074119;83;20997;-85
2022/02/05 11:55:47;;;;;;;7.00;2.47;;;;;;;5.63;64.60;100083.00;2095463;83;21086;-82
2022/02/05 11:58:57;;;;;;;5.05;2.20;;;;;;;5.64;65.13;100089.13;2095785;83;21499;-81
2022/02/05 12:02:20;;;;;;;5.90;2.40;;;;;;;5.70;64.57;100071.46;2095248;83;21075;-83
2022/02/05 12:05:30;;;;;;;5.40;2.52;;;;;;;5.52;64.72;100082.66;2055246;83;21078;-81
2022/02/05 12:08:34;;;;;;;11.57;2.67;;;;;;;5.38;65.20;100076.45;2098050;83;21553;-85
2022/02/05 12:11:35;;;;;;;5.50;2.40;;;;;;;5.47;65.94;100090.61;2095639;83;21456;-86
2022/02/05 12:14:37;;;;;;;7.22;2.77;;;;;;;5.79;65.14;100071.95;2091674;83;21034;-82
2022/02/05 12:18:15;;;;;;;6.62;2.47;;;;;;;5.82;64.97;100089.62;2090597;83;21009;-80
2022/02/05 12:21:13;;;;;;;5.70;2.22;;;;;;;5.88;64.75;100083.46;2095497;83;21499;-81
2022/02/05 12:25:17;;;;;;;4.40;2.40;;;;;;;5.74;64.30;100092.09;2092574;83;21666;-81
2022/02/05 12:28:35;;;;;;;7.08;2.10;;;;;;;5.57;64.63;100094.08;2061520;83;21584;-79
2022/02/05 12:31:41;;;;;;;7.50;2.83;;;;;;;5.27;64.51;100090.55;2034001;83;21081;-78
2022/02/05 12:34:47;;;;;;;9.18;2.83;;;;;;;4.94;65.87;100102.17;2089354;83;21108;-78
2022/02/05 12:37:51;;;;;;;9.35;2.60;;;;;;;4.68;66.42;100102.58;2097096;83;21045;-79
2022/02/05 12:40:55;;;;;;;5.80;2.25;;;;;;;4.54;66.96;100102.08;2071767;83;21038;-81
2022/02/05 12:44:04;;;;;;;6.87;2.42;;;;;;;4.48;67.61;100096.38;2057116;83;21108;-79
2022/02/05 12:47:18;;;;;;;5.95;2.10;;;;;;;4.46;67.73;100098.28;1980485;86;21147;-78
2022/02/05 12:50:27;;;;;;;4.10;1.77;;;;;;;4.33;67.70;100101.57;2074672;83;21564;-79
2022/02/05 12:53:38;;;;;;;7.08;2.60;;;;;;;4.15;68.10;100105.73;2097850;83;22635;-82
2022/02/05 12:56:45;;;;;;;5.35;2.02;;;;;;;4.04;69.10;100097.41;2146819;80;21001;-79
2022/02/05 12:59:52;;;;;;;6.90;2.50;;;;;;;3.98;69.26;100109.73;2150452;80;20979;-80
2022/02/05 13:02:55;;;;;;;7.85;2.95;;;;;;;3.95;69.43;100123.11;2159956;80;21564;-80
2022/02/05 13:05:57;;;;;;;5.50;2.98;;;;;;;3.90;70.08;100105.09;2096237;80;21061;-81
2022/02/05 13:09:09;;;;;;;8.68;3.42;;;;;;;3.97;70.42;100123.80;2167541;80;21596;-82
2022/02/05 13:12:19;;;;;;;8.03;3.22;;;;;;;4.04;70.32;100123.19;2137166;80;20955;-77
2022/02/05 13:15:27;;;;;;;16.75;6.60;;;;;;;4.01;70.33;100134.42;2141001;80;21022;-76
2022/02/05 13:18:43;;;;;;;7.37;2.85;;;;;;;3.97;70.48;100132.53;2136968;80;21069;-83
2022/02/05 13:25:33;;;;;;;8.75;3.00;;;;;;;3.86;70.46;100146.14;2159152;80;21037;-76
2022/02/05 13:34:38;;;;;;;12.15;3.90;;;;;;;3.89;70.74;100148.55;2142398;80;21006;-83
2022/02/05 13:37:53;;;;;;;6.95;3.42;;;;;;;3.99;70.80;100154.22;2103390;80;21108;-78
2022/02/05 13:41:06;;;;;;;10.32;3.83;;;;;;;4.05;68.88;100147.64;2168044;80;21119;-79
2022/02/05 13:44:22;;;;;;;11.95;3.10;;;;;;;4.04;67.80;100139.42;2141548;80;21033;-79
2022/02/05 13:47:46;;;;;;;14.87;6.97;;;;;;;3.99;67.38;100159.95;2158119;80;21041;-78
2022/02/05 13:50:57;;;;;;;6.47;2.52;;;;;;;4.02;67.71;100162.33;2165269;80;21017;-77
2022/02/05 13:54:01;;;;;;;6.67;3.20;;;;;;;4.10;67.26;100165.66;2167333;80;21124;-77
2022/02/05 13:57:07;;;;;;;10.43;4.20;;;;;;;4.18;67.77;100172.45;2174046;80;21109;-78
2022/02/05 14:00:15;;;;;;;7.05;3.20;;;;;;;4.33;68.19;100176.44;2141573;80;21414;-77
2022/02/05 14:03:35;;;;;;;10.85;3.00;;;;;;;4.42;67.13;100166.97;2174581;80;21622;-77
2022/02/05 14:06:59;;;;;;;7.28;2.33;;;;;;;4.46;67.68;100182.37;2156871;80;21515;-78
2022/02/05 14:10:21;;;;;;;7.83;2.58;;;;;;;4.49;67.17;100183.42;2142807;80;21077;-79
2022/02/05 14:13:25;;;;;;;8.18;2.58;;;;;;;4.48;67.00;100197.53;2177321;80;20971;-78
2022/02/05 14:16:32;;;;;;;6.37;2.75;;;;;;;4.42;66.63;100188.84;2097863;80;21757;-77
2022/02/05 14:19:37;;;;;;;4.97;2.55;;;;;;;4.38;66.92;100193.16;2156719;80;21033;-77
2022/02/05 14:22:49;;;;;;;7.05;2.37;;;;;;;4.33;66.57;100197.45;2165050;80;21081;-74
2022/02/05 14:26:12;;;;;;;6.85;3.08;;;;;;;4.30;66.95;100203.44;2144087;80;21575;-75
2022/02/05 14:29:18;;;;;;;16.37;7.75;;;;;;;4.29;67.36;100210.98;2164663;80;21762;-75
2022/02/05 14:36:12;;;;;;;14.63;3.87;;;;;;;4.16;67.70;100216.37;2158579;80;21041;-80
2022/02/05 14:42:02;;;;;;;6.58;2.75;;;;;;;4.06;67.87;100228.11;2148459;80;21065;-76
2022/02/05 14:45:08;;;;;;;6.90;2.85;;;;;;;3.97;67.80;100228.36;2146594;80;21022;-77
2022/02/05 14:48:15;;;;;;;8.43;2.95;;;;;;;3.85;68.13;100237.19;2114439;80;21037;-76
2022/02/05 14:51:27;;;;;;;8.58;3.27;;;;;;;3.69;68.97;100250.69;2166235;80;21026;-84
2022/02/05 14:54:33;;;;;;;5.40;2.40;;;;;;;3.42;69.75;100241.84;2118987;80;21038;-75
2022/02/05 14:57:38;;;;;;;6.78;2.70;;;;;;;3.17;70.50;100242.05;2108962;80;21029;-75
2022/02/05 15:00:43;;;;;;;6.92;2.98;;;;;;;2.98;70.62;100254.38;2108160;80;21041;-74
2022/02/05 15:03:54;;;;;;;15.32;6.50;;;;;;;2.85;71.09;100257.92;2161359;80;21081;-77
2022/02/05 15:06:59;;;;;;;20.35;8.75;;;;;;;2.77;71.53;100260.75;2129387;80;21706;-75
2022/02/05 15:10:09;;;;;;;8.08;4.22;;;;;;;2.67;71.85;100260.09;2144418;80;21014;-74
2022/02/05 15:13:16;;;;;;;12.13;4.17;;;;;;;2.58;71.83;100252.92;2169300;80;21006;-75
2022/02/05 15:16:20;;;;;;;13.65;4.15;;;;;;;2.52;72.05;100259.92;2102173;80;21017;-80
2022/02/05 15:19:28;;;;;;;11.22;4.12;;;;;;;2.44;72.27;100260.95;2152647;80;21120;-76
2022/02/05 15:22:38;;;;;;;11.88;3.83;;;;;;;2.41;72.58;100264.63;2154675;80;21670;-75
2022/02/05 15:25:46;;;;;;;9.00;2.95;;;;;;;2.37;72.73;100257.95;2154761;80;21124;-73
2022/02/05 15:28:50;;;;;;;15.98;6.33;;;;;;;2.34;72.69;100262.58;2134627;80;21099;-79
2022/02/05 15:31:57;;;;;;;17.87;5.95;;;;;;;2.31;72.77;100262.33;2150774;80;21045;-78
2022/02/05 15:35:07;;;;;;;15.15;5.45;;;;;;;2.25;72.83;100271.91;2126835;80;21085;-78
2022/02/05 15:38:17;;;;;;;10.35;5.15;;;;;;;2.15;72.93;100276.97;2142292;80;21061;-79
2022/02/05 15:44:38;;;;;;;13.50;5.35;;;;;;;2.12;73.32;100278.98;2167073;80;21078;-78
2022/02/05 15:47:43;;;;;;;8.80;4.80;;;;;;;2.09;73.32;100281.34;2098029;80;21112;-84
2022/02/05 15:50:52;;;;;;;8.73;4.47;;;;;;;2.11;73.56;100270.30;2092155;80;21602;-83
2022/02/05 15:54:01;;;;;;;12.25;3.90;;;;;;;2.10;73.81;100283.48;2124199;80;21546;-77
2022/02/05 16:00:27;;;;;;;14.23;6.50;;;;;;;2.15;73.88;100295.30;2150175;80;21071;-82
2022/02/05 16:03:28;;;;;;;11.43;5.42;;;;;;;2.19;73.91;100295.91;2176895;80;21022;-85
2022/02/05 16:06:35;;;;;;;14.17;8.50;;;;;;;2.11;73.71;100299.09;2113054;80;21679;-83
2022/02/05 16:09:43;;;;;;;17.75;9.50;;;;;;;2.09;73.80;100298.83;2146026;80;21125;-83
2022/02/05 16:12:48;;;;;;;36.98;16.85;;;;;;;2.07;73.98;100305.47;2118227;80;21117;-84
2022/02/05 16:15:56;;;;;;;33.65;18.32;;;;;;;2.07;74.01;100304.16;2169197;80;21128;-84
2022/02/05 16:18:58;;;;;;;29.98;16.30;;;;;;;2.02;73.99;100316.25;2121861;80;21030;-84
2022/02/05 16:22:03;;;;;;;28.73;14.45;;;;;;;1.96;74.07;100314.55;2152190;80;21089;-82
2022/02/05 16:25:11;;;;;;;20.05;9.33;;;;;;;1.90;74.03;100318.91;2162695;80;21037;-84
2022/02/05 16:28:18;;;;;;;17.00;6.30;;;;;;;1.80;74.05;100317.38;2166202;80;21002;-81
2022/02/05 16:31:22;;;;;;;11.35;5.17;;;;;;;1.75;74.20;100319.02;2169986;80;21085;-78
2022/02/05 16:34:28;;;;;;;13.00;5.00;;;;;;;1.71;74.05;100321.94;2123994;80;20985;-81
2022/02/05 16:37:32;;;;;;;9.83;3.90;;;;;;;1.72;73.85;100323.16;2144328;80;21076;-80
2022/02/05 16:40:34;;;;;;;9.83;3.98;;;;;;;1.79;73.60;100312.62;2179266;80;21601;-80
2022/02/05 16:43:49;;;;;;;15.65;4.72;;;;;;;1.93;73.23;100321.30;2176882;80;21104;-83
2022/02/05 16:46:55;;;;;;;12.88;4.62;;;;;;;2.01;73.12;100315.06;2114351;82;21073;-79
2022/02/05 16:51:13;;;;;;;8.35;3.98;;;;;;;2.04;72.88;100321.39;2104685;84;21054;-79
2022/02/05 16:59:15;;;;;;;11.95;3.87;;;;;;;2.16;72.16;100330.16;2165977;82;21049;-78
2022/02/05 17:06:42;;;;;;;10.72;3.50;;;;;;;2.18;71.81;100333.05;2025473;88;21116;-78
2022/02/05 17:14:20;;;;;;;12.82;4.20;;;;;;;2.15;71.39;100345.04;2016329;88;21179;-79
2022/02/05 17:17:31;;;;;;;15.28;5.15;;;;;;;2.14;71.39;100344.69;2085878;80;21031;-81
2022/02/05 17:20:40;;;;;;;13.27;4.33;;;;;;;2.12;71.32;100342.64;2111015;81;21036;-79
2022/02/05 17:23:45;;;;;;;9.60;4.10;;;;;;;2.10;71.34;100347.14;2102078;81;21074;-80
2022/02/05 17:26:52;;;;;;;11.75;4.70;;;;;;;2.08;71.25;100343.78;2123831;81;21006;-83